Front Runner — 3FRP5 — position and weather

sailwx.info

Track history (hours):
 
Tides and Currents Weather Stations Pressure Air Temp Water Temp Dewpoint Dewpoint Depression Visibility Wind Speed Wind Dir Waves Ship Positions

Front Runner

Last reported at 2015-Jul-05 16:25 UTC. Time now 2015-Jul-07 04:36 UTC.
Position S 33°07' E 151°43'.

Length 190 m; draft 6.2 m.

Type: Cargo ship. MMSI: 357941000.

Date/timePositionNaut miles runAvg speedWind from/ knotsBaromVisibWave heightAir tempDewpointWater temp
2015-Jul-05 16:25S 33°07' E 151°43'0 0.0
2015-Jul-03 21:16S 33°07' E 151°43'1 0.0
2015-Jul-02 08:17S 33°07' E 151°44'5 6.1
2015-Jul-02 07:28S 33°04' E 151°49'1010.8
2015-Jul-02 06:33S 32°59' E 151°59'1111.1
2015-Jul-02 05:33S 32°52' E 152°09'1211.5
2015-Jul-02 04:33S 32°45' E 152°20'1111.3
2015-Jul-02 03:33S 32°38' E 152°30'1010.5
2015-Jul-02 02:33S 32°31' E 152°39'2311.1
2015-Jul-02 00:31S 32°09' E 152°49'26411.8
2015-Jul-01 02:12S 27°52' E 153°57'812.2
2015-Jul-01 01:33S 27°44' E 153°56'1212.5
2015-Jul-01 00:33S 27°32' E 153°54'1313.3
2015-Jun-30 23:33S 27°19' E 153°53'1413.6
2015-Jun-30 22:33S 27°05' E 153°51'1413.4
2015-Jun-30 21:32S 26°52' E 153°50'1212.5
2015-Jun-30 20:33S 26°40' E 153°49'1212.1
2015-Jun-30 19:33S 26°28' E 153°47'1211.8
2015-Jun-30 18:33S 26°16' E 153°46'1211.9
2015-Jun-30 17:32S 26°04' E 153°45'1211.8
2015-Jun-30 16:31S 25°52' E 153°44'1111.8
2015-Jun-30 15:33S 25°41' E 153°42'  
Track history (hours):
 
Tides and Currents Weather Stations Pressure Air Temp Water Temp Dewpoint Dewpoint Depression Visibility Wind Speed Wind Dir Waves Ship Positions

Front Runner

Last reported at 2015-Jul-05 16:25 UTC. Time now 2015-Jul-07 04:36 UTC.
Position S 33°07' E 151°43'.

Length 190 m; draft 6.2 m.

Type: Cargo ship. MMSI: 357941000.

Date/timePositionNaut miles runAvg speedWind from/ knotsBaromVisibWave heightAir tempDewpointWater temp
2015-Jul-05 16:25S 33°07' E 151°43'0 0.0
2015-Jul-03 21:16S 33°07' E 151°43'1 0.0
2015-Jul-02 08:17S 33°07' E 151°44'5 6.1
2015-Jul-02 07:28S 33°04' E 151°49'1010.8
2015-Jul-02 06:33S 32°59' E 151°59'1111.1
2015-Jul-02 05:33S 32°52' E 152°09'1211.5
2015-Jul-02 04:33S 32°45' E 152°20'1111.3
2015-Jul-02 03:33S 32°38' E 152°30'1010.5
2015-Jul-02 02:33S 32°31' E 152°39'2311.1
2015-Jul-02 00:31S 32°09' E 152°49'26411.8
2015-Jul-01 02:12S 27°52' E 153°57'812.2
2015-Jul-01 01:33S 27°44' E 153°56'1212.5
2015-Jul-01 00:33S 27°32' E 153°54'1313.3
2015-Jun-30 23:33S 27°19' E 153°53'1413.6
2015-Jun-30 22:33S 27°05' E 153°51'1413.4
2015-Jun-30 21:32S 26°52' E 153°50'1212.5
2015-Jun-30 20:33S 26°40' E 153°49'1212.1
2015-Jun-30 19:33S 26°28' E 153°47'1211.8
2015-Jun-30 18:33S 26°16' E 153°46'1211.9
2015-Jun-30 17:32S 26°04' E 153°45'1211.8
2015-Jun-30 16:31S 25°52' E 153°44'1111.8
2015-Jun-30 15:33S 25°41' E 153°42'  

Dump ship's entire track history